sensor_id;sensor_type;location;lat;lon;timestamp;P1;durP1;ratioP1;P2;durP2;ratioP2
75548;SDS011;64133;56.002;37.208;2022-10-22T00:00:18;6.90;;;3.83;;
75548;SDS011;64133;56.002;37.208;2022-10-22T00:05:23;9.08;;;4.20;;
75548;SDS011;64133;56.002;37.208;2022-10-22T00:10:28;6.85;;;4.47;;
75548;SDS011;64133;56.002;37.208;2022-10-22T00:15:33;7.83;;;4.12;;
75548;SDS011;64133;56.002;37.208;2022-10-22T00:20:38;13.05;;;6.00;;
75548;SDS011;64133;56.002;37.208;2022-10-22T00:25:42;14.15;;;6.47;;
75548;SDS011;64133;56.002;37.208;2022-10-22T00:30:47;18.55;;;7.12;;
75548;SDS011;64133;56.002;37.208;2022-10-22T00:35:52;14.23;;;6.30;;
75548;SDS011;64133;56.002;37.208;2022-10-22T00:40:57;13.13;;;6.50;;
75548;SDS011;64133;56.002;37.208;2022-10-22T00:46:02;6.53;;;3.98;;
75548;SDS011;64133;56.002;37.208;2022-10-22T00:51:10;7.90;;;4.20;;
75548;SDS011;64133;56.002;37.208;2022-10-22T00:56:15;7.80;;;4.17;;
75548;SDS011;64133;56.002;37.208;2022-10-22T01:01:21;8.43;;;5.20;;
75548;SDS011;64133;56.002;37.208;2022-10-22T01:06:26;9.73;;;4.70;;
75548;SDS011;64133;56.002;37.208;2022-10-22T01:11:44;9.75;;;5.10;;
75548;SDS011;64133;56.002;37.208;2022-10-22T01:16:50;8.73;;;4.12;;
75548;SDS011;64133;56.002;37.208;2022-10-22T01:21:54;8.78;;;4.67;;
75548;SDS011;64133;56.002;37.208;2022-10-22T01:27:23;9.80;;;4.97;;
75548;SDS011;64133;56.002;37.208;2022-10-22T01:32:30;10.15;;;5.25;;
75548;SDS011;64133;56.002;37.208;2022-10-22T01:37:35;8.98;;;5.15;;
75548;SDS011;64133;56.002;37.208;2022-10-22T01:42:40;7.53;;;4.37;;
75548;SDS011;64133;56.002;37.208;2022-10-22T01:47:49;8.83;;;4.80;;
75548;SDS011;64133;56.002;37.208;2022-10-22T01:52:57;9.88;;;5.28;;
75548;SDS011;64133;56.002;37.208;2022-10-22T01:58:08;9.28;;;5.53;;
75548;SDS011;64133;56.002;37.208;2022-10-22T02:03:13;9.98;;;5.22;;
75548;SDS011;64133;56.002;37.208;2022-10-22T02:08:18;10.63;;;4.47;;
75548;SDS011;64133;56.002;37.208;2022-10-22T02:13:24;8.88;;;4.90;;
75548;SDS011;64133;56.002;37.208;2022-10-22T02:18:29;9.58;;;4.55;;
75548;SDS011;64133;56.002;37.208;2022-10-22T02:23:33;9.03;;;5.17;;
75548;SDS011;64133;56.002;37.208;2022-10-22T02:28:39;10.05;;;5.00;;
75548;SDS011;64133;56.002;37.208;2022-10-22T02:33:44;10.60;;;5.30;;
75548;SDS011;64133;56.002;37.208;2022-10-22T02:38:48;11.22;;;6.00;;
75548;SDS011;64133;56.002;37.208;2022-10-22T02:43:54;9.13;;;4.65;;
75548;SDS011;64133;56.002;37.208;2022-10-22T02:48:58;8.73;;;4.92;;
75548;SDS011;64133;56.002;37.208;2022-10-22T02:54:03;9.35;;;5.03;;
75548;SDS011;64133;56.002;37.208;2022-10-22T02:59:08;9.18;;;4.45;;
75548;SDS011;64133;56.002;37.208;2022-10-22T03:04:13;8.23;;;4.85;;
75548;SDS011;64133;56.002;37.208;2022-10-22T03:09:19;9.05;;;4.42;;
75548;SDS011;64133;56.002;37.208;2022-10-22T03:14:24;7.00;;;4.72;;
75548;SDS011;64133;56.002;37.208;2022-10-22T03:19:29;6.42;;;3.62;;
75548;SDS011;64133;56.002;37.208;2022-10-22T03:24:34;7.08;;;3.37;;
75548;SDS011;64133;56.002;37.208;2022-10-22T03:29:39;6.30;;;3.17;;
75548;SDS011;64133;56.002;37.208;2022-10-22T03:34:44;5.85;;;3.30;;
75548;SDS011;64133;56.002;37.208;2022-10-22T03:39:49;6.40;;;3.85;;
75548;SDS011;64133;56.002;37.208;2022-10-22T03:44:54;6.30;;;4.10;;
75548;SDS011;64133;56.002;37.208;2022-10-22T03:49:59;6.45;;;4.00;;
75548;SDS011;64133;56.002;37.208;2022-10-22T03:55:05;6.70;;;3.60;;
75548;SDS011;64133;56.002;37.208;2022-10-22T04:00:11;6.17;;;3.15;;
75548;SDS011;64133;56.002;37.208;2022-10-22T04:05:16;5.87;;;3.33;;
75548;SDS011;64133;56.002;37.208;2022-10-22T04:10:21;6.20;;;3.58;;
75548;SDS011;64133;56.002;37.208;2022-10-22T04:15:26;4.42;;;2.77;;
75548;SDS011;64133;56.002;37.208;2022-10-22T04:20:32;5.92;;;3.08;;
75548;SDS011;64133;56.002;37.208;2022-10-22T04:25:37;5.85;;;2.77;;
75548;SDS011;64133;56.002;37.208;2022-10-22T04:30:42;4.58;;;2.70;;
75548;SDS011;64133;56.002;37.208;2022-10-22T04:35:47;5.67;;;3.00;;
75548;SDS011;64133;56.002;37.208;2022-10-22T04:40:52;4.30;;;2.87;;
75548;SDS011;64133;56.002;37.208;2022-10-22T04:46:00;4.20;;;2.70;;
75548;SDS011;64133;56.002;37.208;2022-10-22T04:51:05;6.30;;;3.10;;
75548;SDS011;64133;56.002;37.208;2022-10-22T04:56:12;4.45;;;3.05;;
75548;SDS011;64133;56.002;37.208;2022-10-22T05:01:16;6.12;;;3.77;;
75548;SDS011;64133;56.002;37.208;2022-10-22T05:06:21;4.97;;;2.92;;
75548;SDS011;64133;56.002;37.208;2022-10-22T05:11:27;5.97;;;2.70;;
75548;SDS011;64133;56.002;37.208;2022-10-22T05:16:31;5.20;;;2.85;;
75548;SDS011;64133;56.002;37.208;2022-10-22T05:21:36;6.42;;;3.50;;
75548;SDS011;64133;56.002;37.208;2022-10-22T05:26:41;6.85;;;3.22;;
75548;SDS011;64133;56.002;37.208;2022-10-22T05:31:46;5.03;;;3.05;;
75548;SDS011;64133;56.002;37.208;2022-10-22T05:36:51;5.83;;;3.70;;
75548;SDS011;64133;56.002;37.208;2022-10-22T05:41:56;5.75;;;3.92;;
75548;SDS011;64133;56.002;37.208;2022-10-22T05:47:02;8.53;;;3.30;;
75548;SDS011;64133;56.002;37.208;2022-10-22T05:52:06;8.45;;;3.50;;
75548;SDS011;64133;56.002;37.208;2022-10-22T05:57:11;7.35;;;3.75;;
75548;SDS011;64133;56.002;37.208;2022-10-22T06:02:16;6.65;;;3.47;;
75548;SDS011;64133;56.002;37.208;2022-10-22T06:07:21;6.42;;;3.58;;
75548;SDS011;64133;56.002;37.208;2022-10-22T06:12:26;4.75;;;2.70;;
75548;SDS011;64133;56.002;37.208;2022-10-22T06:17:31;5.90;;;2.90;;
75548;SDS011;64133;56.002;37.208;2022-10-22T06:22:37;5.45;;;3.10;;
75548;SDS011;64133;56.002;37.208;2022-10-22T06:27:42;10.75;;;5.42;;
75548;SDS011;64133;56.002;37.208;2022-10-22T06:32:47;4.40;;;2.62;;
75548;SDS011;64133;56.002;37.208;2022-10-22T06:37:52;6.25;;;3.30;;
75548;SDS011;64133;56.002;37.208;2022-10-22T06:42:58;4.90;;;3.10;;
75548;SDS011;64133;56.002;37.208;2022-10-22T06:48:04;4.30;;;2.20;;
75548;SDS011;64133;56.002;37.208;2022-10-22T06:53:09;3.77;;;2.10;;
75548;SDS011;64133;56.002;37.208;2022-10-22T06:58:14;3.60;;;2.10;;
75548;SDS011;64133;56.002;37.208;2022-10-22T07:03:19;6.30;;;2.92;;
75548;SDS011;64133;56.002;37.208;2022-10-22T07:08:24;6.37;;;3.05;;
75548;SDS011;64133;56.002;37.208;2022-10-22T07:13:29;4.35;;;2.20;;
75548;SDS011;64133;56.002;37.208;2022-10-22T07:18:34;5.45;;;2.20;;
75548;SDS011;64133;56.002;37.208;2022-10-22T07:23:39;5.50;;;2.02;;
75548;SDS011;64133;56.002;37.208;2022-10-22T07:28:44;4.80;;;2.90;;
75548;SDS011;64133;56.002;37.208;2022-10-22T07:33:49;3.77;;;2.27;;
75548;SDS011;64133;56.002;37.208;2022-10-22T07:38:55;4.05;;;1.80;;
75548;SDS011;64133;56.002;37.208;2022-10-22T07:44:00;5.45;;;3.33;;
75548;SDS011;64133;56.002;37.208;2022-10-22T07:49:05;5.95;;;2.65;;
75548;SDS011;64133;56.002;37.208;2022-10-22T07:54:10;4.17;;;2.30;;
75548;SDS011;64133;56.002;37.208;2022-10-22T07:59:18;4.90;;;2.27;;
75548;SDS011;64133;56.002;37.208;2022-10-22T08:04:23;3.77;;;2.27;;
75548;SDS011;64133;56.002;37.208;2022-10-22T08:09:28;3.17;;;1.87;;
75548;SDS011;64133;56.002;37.208;2022-10-22T08:14:33;4.78;;;2.42;;
75548;SDS011;64133;56.002;37.208;2022-10-22T08:19:39;5.85;;;3.05;;
75548;SDS011;64133;56.002;37.208;2022-10-22T08:24:44;4.65;;;2.25;;
75548;SDS011;64133;56.002;37.208;2022-10-22T08:29:49;3.05;;;1.75;;
75548;SDS011;64133;56.002;37.208;2022-10-22T08:34:54;4.20;;;2.65;;
75548;SDS011;64133;56.002;37.208;2022-10-22T08:39:59;4.53;;;2.80;;
75548;SDS011;64133;56.002;37.208;2022-10-22T08:45:07;4.25;;;2.47;;
75548;SDS011;64133;56.002;37.208;2022-10-22T08:50:14;4.58;;;2.27;;
75548;SDS011;64133;56.002;37.208;2022-10-22T08:55:17;9.70;;;6.08;;
75548;SDS011;64133;56.002;37.208;2022-10-22T09:00:23;5.75;;;2.98;;
75548;SDS011;64133;56.002;37.208;2022-10-22T09:05:32;3.95;;;2.50;;
75548;SDS011;64133;56.002;37.208;2022-10-22T09:10:39;5.00;;;2.02;;
75548;SDS011;64133;56.002;37.208;2022-10-22T09:15:42;3.70;;;2.10;;
75548;SDS011;64133;56.002;37.208;2022-10-22T09:20:48;3.92;;;2.12;;
75548;SDS011;64133;56.002;37.208;2022-10-22T09:25:52;4.08;;;1.72;;
75548;SDS011;64133;56.002;37.208;2022-10-22T09:30:57;4.22;;;2.20;;
75548;SDS011;64133;56.002;37.208;2022-10-22T09:36:03;3.37;;;2.00;;
75548;SDS011;64133;56.002;37.208;2022-10-22T09:41:08;3.20;;;2.17;;
75548;SDS011;64133;56.002;37.208;2022-10-22T09:46:14;3.27;;;2.52;;
75548;SDS011;64133;56.002;37.208;2022-10-22T09:51:20;3.60;;;2.00;;
75548;SDS011;64133;56.002;37.208;2022-10-22T09:56:26;3.22;;;1.90;;
75548;SDS011;64133;56.002;37.208;2022-10-22T10:01:30;3.87;;;2.15;;
75548;SDS011;64133;56.002;37.208;2022-10-22T10:06:37;3.52;;;2.27;;
75548;SDS011;64133;56.002;37.208;2022-10-22T10:11:44;4.72;;;2.30;;
75548;SDS011;64133;56.002;37.208;2022-10-22T10:16:52;5.83;;;2.47;;
75548;SDS011;64133;56.002;37.208;2022-10-22T10:21:59;6.75;;;2.80;;
75548;SDS011;64133;56.002;37.208;2022-10-22T10:27:06;4.42;;;2.70;;
75548;SDS011;64133;56.002;37.208;2022-10-22T10:32:16;4.58;;;3.00;;
75548;SDS011;64133;56.002;37.208;2022-10-22T10:37:24;3.72;;;2.60;;
75548;SDS011;64133;56.002;37.208;2022-10-22T10:42:29;4.05;;;1.82;;
75548;SDS011;64133;56.002;37.208;2022-10-22T10:47:41;3.37;;;1.50;;
75548;SDS011;64133;56.002;37.208;2022-10-22T10:52:59;4.50;;;2.12;;
75548;SDS011;64133;56.002;37.208;2022-10-22T10:58:08;3.52;;;1.95;;
75548;SDS011;64133;56.002;37.208;2022-10-22T11:03:28;6.58;;;2.33;;
75548;SDS011;64133;56.002;37.208;2022-10-22T11:08:45;3.22;;;1.80;;
75548;SDS011;64133;56.002;37.208;2022-10-22T11:13:51;6.90;;;2.22;;
75548;SDS011;64133;56.002;37.208;2022-10-22T11:18:55;3.72;;;1.87;;
75548;SDS011;64133;56.002;37.208;2022-10-22T11:24:02;3.10;;;1.75;;
75548;SDS011;64133;56.002;37.208;2022-10-22T11:29:08;3.47;;;2.12;;
75548;SDS011;64133;56.002;37.208;2022-10-22T11:34:14;3.40;;;2.08;;
75548;SDS011;64133;56.002;37.208;2022-10-22T11:39:29;3.83;;;1.95;;
75548;SDS011;64133;56.002;37.208;2022-10-22T11:44:45;2.98;;;1.82;;
75548;SDS011;64133;56.002;37.208;2022-10-22T11:49:57;8.68;;;2.08;;
75548;SDS011;64133;56.002;37.208;2022-10-22T11:55:02;3.50;;;2.17;;
75548;SDS011;64133;56.002;37.208;2022-10-22T12:00:31;2.80;;;1.92;;
75548;SDS011;64133;56.002;37.208;2022-10-22T12:05:38;2.85;;;1.62;;
75548;SDS011;64133;56.002;37.208;2022-10-22T12:16:07;2.62;;;1.60;;
75548;SDS011;64133;56.002;37.208;2022-10-22T12:21:13;4.78;;;1.90;;
75548;SDS011;64133;56.002;37.208;2022-10-22T12:26:24;3.30;;;2.10;;
75548;SDS011;64133;56.002;37.208;2022-10-22T12:31:33;4.50;;;2.00;;
75548;SDS011;64133;56.002;37.208;2022-10-22T12:36:38;5.15;;;2.50;;
75548;SDS011;64133;56.002;37.208;2022-10-22T12:41:43;4.90;;;2.42;;
75548;SDS011;64133;56.002;37.208;2022-10-22T12:46:48;4.65;;;2.40;;
75548;SDS011;64133;56.002;37.208;2022-10-22T12:51:53;6.87;;;2.90;;
75548;SDS011;64133;56.002;37.208;2022-10-22T12:56:58;3.77;;;2.45;;
75548;SDS011;64133;56.002;37.208;2022-10-22T13:02:08;6.17;;;3.27;;
75548;SDS011;64133;56.002;37.208;2022-10-22T13:07:17;7.25;;;3.30;;
75548;SDS011;64133;56.002;37.208;2022-10-22T13:12:24;5.42;;;2.47;;
75548;SDS011;64133;56.002;37.208;2022-10-22T13:17:38;5.10;;;2.25;;
75548;SDS011;64133;56.002;37.208;2022-10-22T13:22:52;4.60;;;1.90;;
75548;SDS011;64133;56.002;37.208;2022-10-22T13:27:58;5.15;;;2.12;;
75548;SDS011;64133;56.002;37.208;2022-10-22T13:33:03;3.45;;;1.70;;
75548;SDS011;64133;56.002;37.208;2022-10-22T13:38:09;6.37;;;2.00;;
75548;SDS011;64133;56.002;37.208;2022-10-22T13:43:15;4.53;;;1.70;;
75548;SDS011;64133;56.002;37.208;2022-10-22T13:48:20;8.98;;;4.30;;
75548;SDS011;64133;56.002;37.208;2022-10-22T13:53:25;3.87;;;2.15;;
75548;SDS011;64133;56.002;37.208;2022-10-22T13:58:30;3.27;;;2.22;;
75548;SDS011;64133;56.002;37.208;2022-10-22T14:03:36;3.80;;;2.45;;
75548;SDS011;64133;56.002;37.208;2022-10-22T14:08:40;4.08;;;2.25;;
75548;SDS011;64133;56.002;37.208;2022-10-22T14:13:45;4.35;;;2.22;;
75548;SDS011;64133;56.002;37.208;2022-10-22T14:18:50;6.05;;;3.10;;
75548;SDS011;64133;56.002;37.208;2022-10-22T14:23:56;5.60;;;2.95;;
75548;SDS011;64133;56.002;37.208;2022-10-22T14:29:01;5.42;;;2.85;;
75548;SDS011;64133;56.002;37.208;2022-10-22T14:34:06;5.53;;;3.20;;
75548;SDS011;64133;56.002;37.208;2022-10-22T14:39:12;9.73;;;4.45;;
75548;SDS011;64133;56.002;37.208;2022-10-22T14:44:17;8.05;;;4.12;;
75548;SDS011;64133;56.002;37.208;2022-10-22T14:49:22;8.73;;;4.55;;
75548;SDS011;64133;56.002;37.208;2022-10-22T14:54:27;11.50;;;5.35;;
75548;SDS011;64133;56.002;37.208;2022-10-22T14:59:35;12.30;;;6.25;;
75548;SDS011;64133;56.002;37.208;2022-10-22T15:04:41;9.55;;;5.78;;
75548;SDS011;64133;56.002;37.208;2022-10-22T15:09:46;12.60;;;6.87;;
75548;SDS011;64133;56.002;37.208;2022-10-22T15:14:52;12.82;;;6.12;;
75548;SDS011;64133;56.002;37.208;2022-10-22T15:19:57;11.08;;;5.28;;
75548;SDS011;64133;56.002;37.208;2022-10-22T15:25:03;12.25;;;6.72;;
75548;SDS011;64133;56.002;37.208;2022-10-22T15:30:09;12.05;;;6.53;;
75548;SDS011;64133;56.002;37.208;2022-10-22T15:35:15;11.38;;;7.20;;
75548;SDS011;64133;56.002;37.208;2022-10-22T15:40:20;11.25;;;6.37;;
75548;SDS011;64133;56.002;37.208;2022-10-22T15:45:25;9.83;;;4.92;;
75548;SDS011;64133;56.002;37.208;2022-10-22T15:50:32;8.85;;;5.05;;
75548;SDS011;64133;56.002;37.208;2022-10-22T15:55:39;10.13;;;5.35;;
75548;SDS011;64133;56.002;37.208;2022-10-22T16:00:44;11.75;;;6.30;;
75548;SDS011;64133;56.002;37.208;2022-10-22T16:05:52;8.50;;;3.92;;
75548;SDS011;64133;56.002;37.208;2022-10-22T16:10:57;9.98;;;5.40;;
75548;SDS011;64133;56.002;37.208;2022-10-22T16:16:04;10.23;;;4.85;;
75548;SDS011;64133;56.002;37.208;2022-10-22T16:21:12;10.05;;;5.40;;
75548;SDS011;64133;56.002;37.208;2022-10-22T16:26:17;9.85;;;5.03;;
75548;SDS011;64133;56.002;37.208;2022-10-22T16:31:21;11.70;;;5.95;;
75548;SDS011;64133;56.002;37.208;2022-10-22T16:36:26;9.40;;;5.33;;
75548;SDS011;64133;56.002;37.208;2022-10-22T16:41:31;11.43;;;6.12;;
75548;SDS011;64133;56.002;37.208;2022-10-22T16:46:39;12.63;;;5.97;;
75548;SDS011;64133;56.002;37.208;2022-10-22T16:51:44;9.35;;;5.72;;
75548;SDS011;64133;56.002;37.208;2022-10-22T16:56:49;15.25;;;6.45;;
75548;SDS011;64133;56.002;37.208;2022-10-22T17:01:54;8.50;;;5.17;;
75548;SDS011;64133;56.002;37.208;2022-10-22T17:06:59;9.33;;;5.80;;
75548;SDS011;64133;56.002;37.208;2022-10-22T17:12:05;9.53;;;5.33;;
75548;SDS011;64133;56.002;37.208;2022-10-22T17:17:10;10.23;;;5.58;;
75548;SDS011;64133;56.002;37.208;2022-10-22T17:22:15;8.83;;;5.50;;
75548;SDS011;64133;56.002;37.208;2022-10-22T17:27:22;13.40;;;6.33;;
75548;SDS011;64133;56.002;37.208;2022-10-22T17:32:27;9.80;;;5.45;;
75548;SDS011;64133;56.002;37.208;2022-10-22T17:37:32;12.35;;;5.97;;
75548;SDS011;64133;56.002;37.208;2022-10-22T17:42:37;10.75;;;6.47;;
75548;SDS011;64133;56.002;37.208;2022-10-22T17:47:42;11.00;;;6.97;;
75548;SDS011;64133;56.002;37.208;2022-10-22T17:52:47;12.93;;;8.30;;
75548;SDS011;64133;56.002;37.208;2022-10-22T17:57:51;10.18;;;6.83;;
75548;SDS011;64133;56.002;37.208;2022-10-22T18:02:57;11.12;;;5.87;;
75548;SDS011;64133;56.002;37.208;2022-10-22T18:08:02;11.97;;;6.75;;
75548;SDS011;64133;56.002;37.208;2022-10-22T18:13:17;13.80;;;7.17;;
75548;SDS011;64133;56.002;37.208;2022-10-22T18:18:22;10.20;;;7.30;;
75548;SDS011;64133;56.002;37.208;2022-10-22T18:23:27;13.13;;;7.60;;
75548;SDS011;64133;56.002;37.208;2022-10-22T18:28:33;12.18;;;7.70;;
75548;SDS011;64133;56.002;37.208;2022-10-22T18:33:38;7.08;;;4.03;;
75548;SDS011;64133;56.002;37.208;2022-10-22T18:38:43;13.22;;;6.85;;
75548;SDS011;64133;56.002;37.208;2022-10-22T18:43:49;15.58;;;8.45;;
75548;SDS011;64133;56.002;37.208;2022-10-22T18:48:55;14.35;;;8.20;;
75548;SDS011;64133;56.002;37.208;2022-10-22T18:54:00;15.48;;;7.87;;
75548;SDS011;64133;56.002;37.208;2022-10-22T18:59:05;10.03;;;5.95;;
75548;SDS011;64133;56.002;37.208;2022-10-22T19:04:14;11.80;;;7.80;;
75548;SDS011;64133;56.002;37.208;2022-10-22T19:09:23;10.63;;;7.20;;
75548;SDS011;64133;56.002;37.208;2022-10-22T19:14:24;9.83;;;6.12;;
75548;SDS011;64133;56.002;37.208;2022-10-22T19:19:29;10.10;;;6.08;;
75548;SDS011;64133;56.002;37.208;2022-10-22T19:24:34;12.28;;;7.60;;
75548;SDS011;64133;56.002;37.208;2022-10-22T19:29:39;15.13;;;7.92;;
75548;SDS011;64133;56.002;37.208;2022-10-22T19:34:46;10.93;;;6.08;;
75548;SDS011;64133;56.002;37.208;2022-10-22T19:39:51;10.65;;;6.12;;
75548;SDS011;64133;56.002;37.208;2022-10-22T19:44:56;11.53;;;7.03;;
75548;SDS011;64133;56.002;37.208;2022-10-22T19:50:01;13.53;;;7.22;;
75548;SDS011;64133;56.002;37.208;2022-10-22T19:55:07;11.53;;;6.40;;
75548;SDS011;64133;56.002;37.208;2022-10-22T20:00:15;11.93;;;6.40;;
75548;SDS011;64133;56.002;37.208;2022-10-22T20:05:27;11.15;;;6.50;;
75548;SDS011;64133;56.002;37.208;2022-10-22T20:10:32;9.90;;;6.72;;
75548;SDS011;64133;56.002;37.208;2022-10-22T20:15:37;10.78;;;6.87;;
75548;SDS011;64133;56.002;37.208;2022-10-22T20:20:42;12.55;;;6.85;;
75548;SDS011;64133;56.002;37.208;2022-10-22T20:25:47;13.18;;;6.08;;
75548;SDS011;64133;56.002;37.208;2022-10-22T20:30:52;10.10;;;6.35;;
75548;SDS011;64133;56.002;37.208;2022-10-22T20:35:58;12.98;;;7.65;;
75548;SDS011;64133;56.002;37.208;2022-10-22T20:41:03;11.18;;;6.55;;
75548;SDS011;64133;56.002;37.208;2022-10-22T20:46:11;11.65;;;6.90;;
75548;SDS011;64133;56.002;37.208;2022-10-22T20:51:18;11.05;;;6.37;;
75548;SDS011;64133;56.002;37.208;2022-10-22T20:56:23;9.83;;;6.47;;
75548;SDS011;64133;56.002;37.208;2022-10-22T21:01:28;10.93;;;6.30;;
75548;SDS011;64133;56.002;37.208;2022-10-22T21:06:34;8.58;;;3.90;;
75548;SDS011;64133;56.002;37.208;2022-10-22T21:11:40;11.05;;;5.92;;
75548;SDS011;64133;56.002;37.208;2022-10-22T21:16:45;7.47;;;5.10;;
75548;SDS011;64133;56.002;37.208;2022-10-22T21:21:50;15.08;;;7.17;;
75548;SDS011;64133;56.002;37.208;2022-10-22T21:27:04;12.65;;;6.28;;
75548;SDS011;64133;56.002;37.208;2022-10-22T21:32:09;7.90;;;5.17;;
75548;SDS011;64133;56.002;37.208;2022-10-22T21:37:14;7.70;;;4.70;;
75548;SDS011;64133;56.002;37.208;2022-10-22T21:42:19;7.95;;;4.80;;
75548;SDS011;64133;56.002;37.208;2022-10-22T21:47:24;8.20;;;4.67;;
75548;SDS011;64133;56.002;37.208;2022-10-22T21:52:29;11.12;;;4.72;;
75548;SDS011;64133;56.002;37.208;2022-10-22T21:57:34;10.75;;;4.90;;
75548;SDS011;64133;56.002;37.208;2022-10-22T22:02:39;8.88;;;4.28;;
75548;SDS011;64133;56.002;37.208;2022-10-22T22:07:45;9.70;;;4.20;;
75548;SDS011;64133;56.002;37.208;2022-10-22T22:12:50;6.50;;;4.00;;
75548;SDS011;64133;56.002;37.208;2022-10-22T22:17:55;7.95;;;3.42;;
75548;SDS011;64133;56.002;37.208;2022-10-22T22:23:00;8.03;;;4.83;;
75548;SDS011;64133;56.002;37.208;2022-10-22T22:28:05;8.88;;;4.28;;
75548;SDS011;64133;56.002;37.208;2022-10-22T22:33:10;7.40;;;4.20;;
75548;SDS011;64133;56.002;37.208;2022-10-22T22:38:14;8.25;;;4.97;;
75548;SDS011;64133;56.002;37.208;2022-10-22T22:43:19;5.37;;;2.62;;
75548;SDS011;64133;56.002;37.208;2022-10-22T22:48:25;8.88;;;4.75;;
75548;SDS011;64133;56.002;37.208;2022-10-22T22:53:30;6.87;;;3.77;;
75548;SDS011;64133;56.002;37.208;2022-10-22T22:58:35;8.98;;;5.03;;
75548;SDS011;64133;56.002;37.208;2022-10-22T23:03:40;7.45;;;4.00;;
75548;SDS011;64133;56.002;37.208;2022-10-22T23:08:47;6.45;;;3.72;;
75548;SDS011;64133;56.002;37.208;2022-10-22T23:14:00;7.70;;;3.87;;
75548;SDS011;64133;56.002;37.208;2022-10-22T23:19:05;7.55;;;4.00;;
75548;SDS011;64133;56.002;37.208;2022-10-22T23:24:11;6.92;;;3.77;;
75548;SDS011;64133;56.002;37.208;2022-10-22T23:29:16;7.45;;;4.25;;
75548;SDS011;64133;56.002;37.208;2022-10-22T23:34:21;7.40;;;4.00;;
75548;SDS011;64133;56.002;37.208;2022-10-22T23:39:26;4.25;;;1.92;;
75548;SDS011;64133;56.002;37.208;2022-10-22T23:44:30;10.58;;;3.72;;
75548;SDS011;64133;56.002;37.208;2022-10-22T23:49:35;6.37;;;3.42;;
75548;SDS011;64133;56.002;37.208;2022-10-22T23:54:40;7.20;;;3.60;;
75548;SDS011;64133;56.002;37.208;2022-10-22T23:59:46;8.28;;;3.77;;
